Time;durP1;ratioP1;P1;durP2;ratioP2;P2;SDS_P1;SDS_P2;PMS_P1;PMS_P2;Temp;Humidity;BMP_temperature;BMP_pressure;BME280_temperature;BME280_humidity;BME280_pressure;Samples;Min_cycle;Max_cycle;Signal;HPM_P1;HPM_P2
2023/03/26 00:01:57;;;;;;;8.07;0.85;;;7.70;99.90;;;;;;6244697;22;20044;-93
2023/03/26 00:04:24;;;;;;;3.40;1.13;;;7.70;99.90;;;;;;6244418;22;20018;-94
2023/03/26 00:06:53;;;;;;;5.68;1.30;;;7.70;99.90;;;;;;6243664;22;20074;-96
2023/03/26 00:13:33;;;;;;;;;;;7.70;99.90;;;;;;6405615;22;20071;-94
2023/03/26 00:16:27;;;;;;;7.07;0.88;;;7.70;99.90;;;;;;6269051;22;20242;-95
2023/03/26 00:19:04;;;;;;;7.78;1.10;;;7.60;99.90;;;;;;6243678;22;20024;-94
2023/03/26 00:21:32;;;;;;;6.90;1.20;;;7.60;99.90;;;;;;6243646;22;20067;-95
2023/03/26 00:24:04;;;;;;;6.28;0.85;;;7.60;99.90;;;;;;6243231;22;20017;-94
2023/03/26 00:26:39;;;;;;;3.75;0.80;;;7.50;99.90;;;;;;6245259;22;20097;-94
2023/03/26 00:29:07;;;;;;;8.40;1.65;;;7.50;99.90;;;;;;6242961;22;20014;-95
2023/03/26 00:31:34;;;;;;;3.38;0.50;;;7.50;99.90;;;;;;6243466;22;20018;-93
2023/03/26 00:34:04;;;;;;;5.88;0.80;;;7.50;99.90;;;;;;6219526;22;20045;-95
2023/03/26 00:36:30;;;;;;;6.28;0.65;;;7.50;99.90;;;;;;6243581;22;20032;-94
2023/03/26 00:39:00;;;;;;;4.38;1.15;;;7.50;99.90;;;;;;6244011;22;20036;-95
2023/03/26 00:41:29;;;;;;;2.13;0.70;;;7.50;99.90;;;;;;6242034;22;20089;-94
2023/03/26 00:44:19;;;;;;;9.10;1.33;;;7.50;99.90;;;;;;6243685;22;20014;-96
2023/03/26 00:46:45;;;;;;;4.43;1.08;;;7.50;99.90;;;;;;6243404;22;20092;-93
2023/03/26 00:49:14;;;;;;;5.37;0.80;;;7.50;99.90;;;;;;6243294;22;20014;-94
2023/03/26 00:51:41;;;;;;;4.88;0.63;;;7.40;99.90;;;;;;6218197;22;20018;-94
2023/03/26 00:58:25;;;;;;;4.20;0.57;;;7.40;99.90;;;;;;6405040;22;20097;-93
2023/03/26 01:00:56;;;;;;;3.78;0.57;;;7.40;99.90;;;;;;6243258;22;20064;-94
2023/03/26 01:03:57;;;;;;;3.15;0.82;;;7.40;99.90;;;;;;6243797;22;20100;-96
2023/03/26 01:06:43;;;;;;;3.67;0.73;;;7.30;99.90;;;;;;6242476;22;20103;-96
2023/03/26 01:11:45;;;;;;;2.72;0.40;;;7.30;99.90;;;;;;6181810;23;20025;-94
2023/03/26 01:15:03;;;;;;;2.92;0.80;;;7.30;99.90;;;;;;6156705;22;20047;-93
2023/03/26 01:17:32;;;;;;;5.28;0.75;;;7.30;99.90;;;;;;6156746;22;20017;-93
2023/03/26 01:20:18;;;;;;;5.38;0.60;;;7.30;99.90;;;;;;6157222;22;20360;-96
2023/03/26 01:22:51;;;;;;;9.30;1.10;;;7.20;99.90;;;;;;6156818;23;20052;-94
2023/03/26 01:29:22;;;;;;;;;;;7.20;99.90;;;;;;6183347;23;20384;-94
2023/03/26 01:32:01;;;;;;;4.70;0.70;;;7.20;99.90;;;;;;6157313;23;20294;-94
2023/03/26 01:34:42;;;;;;;8.77;1.02;;;7.20;99.90;;;;;;6156565;22;20072;-93
2023/03/26 01:37:29;;;;;;;3.03;0.55;;;7.20;99.90;;;;;;6156267;22;20142;-93
2023/03/26 01:40:22;;;;;;;3.17;0.60;;;7.20;99.90;;;;;;6156735;22;20067;-94
2023/03/26 01:43:07;;;;;;;8.30;0.90;;;7.20;99.90;;;;;;6181219;22;20028;-92
2023/03/26 01:45:37;;;;;;;7.38;0.88;;;7.20;99.90;;;;;;6156470;22;20021;-93
2023/03/26 01:48:05;;;;;;;4.50;0.77;;;7.20;99.90;;;;;;6155541;22;20075;-94
2023/03/26 01:50:31;;;;;;;6.07;0.70;;;7.20;99.90;;;;;;6156093;22;20017;-94
2023/03/26 01:52:57;;;;;;;5.93;0.60;;;7.20;99.90;;;;;;6156382;23;20067;-92
2023/03/26 01:55:48;;;;;;;6.57;0.70;;;7.20;99.90;;;;;;6156012;23;20021;-93
2023/03/26 01:58:47;;;;;;;6.18;0.93;;;7.10;99.90;;;;;;6156637;22;20048;-94
2023/03/26 02:01:43;;;;;;;6.32;1.48;;;7.10;99.90;;;;;;6156243;22;20021;-94
2023/03/26 02:04:25;;;;;;;7.88;0.80;;;7.20;99.90;;;;;;6155931;22;20024;-93
2023/03/26 02:07:16;;;;;;;2.83;0.60;;;7.10;99.90;;;;;;6155997;23;20515;-92
2023/03/26 02:13:24;;;;;;;8.45;0.75;;;7.10;99.90;;;;;;6214262;22;20021;-94
2023/03/26 02:15:58;;;;;;;6.40;0.70;;;7.10;99.90;;;;;;6286198;22;20379;-94
2023/03/26 02:18:34;;;;;;;6.07;0.70;;;7.10;99.90;;;;;;6260311;22;20028;-93
2023/03/26 02:21:04;;;;;;;4.28;0.63;;;7.10;99.90;;;;;;6311571;22;20042;-93
2023/03/26 02:23:34;;;;;;;4.38;0.63;;;7.10;99.90;;;;;;6254354;22;20069;-94
2023/03/26 02:26:07;;;;;;;6.75;0.88;;;7.20;99.90;;;;;;6275959;22;20448;-94
2023/03/26 02:28:33;;;;;;;3.88;0.52;;;7.10;99.90;;;;;;6286426;22;20015;-88
2023/03/26 02:31:00;;;;;;;3.78;0.55;;;7.10;99.90;;;;;;6286876;22;20018;-93
2023/03/26 02:33:27;;;;;;;;;;;7.10;99.90;;;;;;6286764;22;20015;-91
2023/03/26 02:35:53;;;;;;;6.68;0.90;;;7.10;99.90;;;;;;6285829;22;19986;-95
2023/03/26 02:38:19;;;;;;;4.17;0.80;;;7.10;99.90;;;;;;6259846;22;20466;-94
2023/03/26 02:40:45;;;;;;;2.97;0.57;;;7.10;99.90;;;;;;6285864;22;20241;-95
2023/03/26 02:43:32;;;;;;;5.40;0.83;;;7.10;99.90;;;;;;6286372;22;20516;-91
2023/03/26 02:45:58;;;;;;;9.77;0.57;;;7.10;99.90;;;;;;6286100;22;20039;-92
2023/03/26 02:48:24;;;;;;;5.23;1.13;;;7.10;99.90;;;;;;6286164;22;20015;-92
2023/03/26 02:50:53;;;;;;;1.87;0.60;;;7.10;99.90;;;;;;6286293;22;20091;-94
2023/03/26 02:53:57;;;;;;;3.97;0.70;;;7.10;99.90;;;;;;6261317;22;20029;-91
2023/03/26 02:56:51;;;;;;;7.28;0.73;;;7.10;99.90;;;;;;6286253;22;20095;-92
2023/03/26 02:59:17;;;;;;;7.72;0.90;;;7.10;99.90;;;;;;6286496;22;20490;-95
2023/03/26 03:01:42;;;;;;;10.00;1.27;;;7.10;99.90;;;;;;6288185;22;20014;-91
2023/03/26 03:04:12;;;;;;;3.93;0.97;;;7.10;99.90;;;;;;6288303;22;20272;-92
2023/03/26 03:06:39;;;;;;;4.68;0.77;;;7.10;99.90;;;;;;6288260;22;20022;-91
2023/03/26 03:09:09;;;;;;;5.07;0.95;;;7.10;99.90;;;;;;6288063;22;20013;-94
2023/03/26 03:11:59;;;;;;;5.00;0.60;;;7.10;99.90;;;;;;6262785;22;20021;-91
2023/03/26 03:14:25;;;;;;;3.67;0.52;;;7.10;99.90;;;;;;6283008;22;20060;-92
2023/03/26 03:16:52;;;;;;;3.83;0.40;;;7.10;99.90;;;;;;6231931;22;20102;-94
2023/03/26 03:19:18;;;;;;;6.63;0.63;;;7.00;99.90;;;;;;6232433;22;20015;-95
2023/03/26 03:22:33;;;;;;;6.80;0.63;;;7.00;99.90;;;;;;6231952;22;20016;-93
2023/03/26 03:25:24;;;;;;;3.33;0.80;;;7.00;99.90;;;;;;6282915;22;20022;-92
2023/03/26 03:28:10;;;;;;;7.90;0.82;;;7.00;99.90;;;;;;6308742;22;20509;-94
2023/03/26 03:30:36;;;;;;;6.22;0.55;;;7.00;99.90;;;;;;6282662;22;20384;-93
2023/03/26 03:33:03;;;;;;;6.88;0.80;;;7.00;99.90;;;;;;6308334;22;20098;-91
2023/03/26 03:35:29;;;;;;;2.35;0.73;;;7.00;99.90;;;;;;6257215;22;20015;-91
2023/03/26 03:37:56;;;;;;;3.03;0.45;;;7.00;99.90;;;;;;6262315;22;20022;-92
2023/03/26 03:40:22;;;;;;;3.25;0.50;;;7.10;99.90;;;;;;6287671;22;20014;-91
2023/03/26 03:43:08;;;;;;;4.27;0.70;;;7.00;99.90;;;;;;6262468;22;20072;-91
2023/03/26 03:45:34;;;;;;;4.43;0.50;;;7.00;99.90;;;;;;6261932;22;20392;-90
2023/03/26 03:48:00;;;;;;;5.43;0.43;;;7.00;99.90;;;;;;6287232;22;20053;-90
2023/03/26 03:50:25;;;;;;;4.20;0.60;;;7.10;99.90;;;;;;6287618;22;20057;-91
2023/03/26 03:53:25;;;;;;;5.00;0.80;;;7.10;99.90;;;;;;6262184;22;20015;-91
2023/03/26 03:56:13;;;;;;;4.43;1.08;;;7.00;99.90;;;;;;6287774;22;20064;-91
2023/03/26 03:58:40;;;;;;;3.00;0.43;;;7.00;99.90;;;;;;6262255;22;20011;-91
2023/03/26 04:01:06;;;;;;;10.55;1.17;;;7.00;99.90;;;;;;6287602;22;20019;-92
2023/03/26 04:03:37;;;;;;;2.15;0.55;;;7.00;99.90;;;;;;6287609;22;20019;-91
2023/03/26 04:06:06;;;;;;;4.50;0.68;;;7.00;99.90;;;;;;6314674;22;20011;-93
2023/03/26 04:08:33;;;;;;;5.57;1.02;;;7.00;99.90;;;;;;6262222;22;20014;-94
2023/03/26 04:11:21;;;;;;;7.30;0.80;;;7.00;99.90;;;;;;6287855;22;20017;-93
2023/03/26 04:13:47;;;;;;;4.53;1.13;;;7.00;99.90;;;;;;6276975;22;20050;-92
2023/03/26 04:16:13;;;;;;;7.72;0.98;;;7.00;99.90;;;;;;6260413;22;20082;-91
2023/03/26 04:18:39;;;;;;;3.67;0.60;;;6.90;99.90;;;;;;6236086;22;20025;-92
2023/03/26 04:25:17;;;;;;;;;;;6.90;99.90;;;;;;6183917;22;20028;-92
2023/03/26 04:27:43;;;;;;;4.38;0.65;;;6.90;99.90;;;;;;6157134;23;19916;-94
2023/03/26 04:30:14;;;;;;;2.38;0.43;;;6.90;99.90;;;;;;6235337;22;20017;-95
2023/03/26 04:32:41;;;;;;;5.03;0.77;;;6.90;99.90;;;;;;6285987;22;20096;-94
2023/03/26 04:35:12;;;;;;;3.53;0.70;;;6.90;99.90;;;;;;6235903;22;20020;-95
2023/03/26 04:37:39;;;;;;;2.67;0.55;;;6.90;99.90;;;;;;6285949;22;20018;-94
2023/03/26 04:40:29;;;;;;;6.60;0.70;;;6.90;99.90;;;;;;6287391;22;20098;-92
2023/03/26 04:42:58;;;;;;;2.45;0.50;;;6.80;99.90;;;;;;6156100;23;20017;-94
2023/03/26 04:45:24;;;;;;;4.78;0.80;;;6.80;99.90;;;;;;6132540;23;20017;-94
2023/03/26 04:47:50;;;;;;;4.60;0.80;;;6.90;99.90;;;;;;6260573;22;20017;-93
2023/03/26 04:51:08;;;;;;;4.57;0.70;;;6.80;99.90;;;;;;6259705;22;20020;-91
2023/03/26 04:54:24;;;;;;;2.60;0.63;;;6.80;99.90;;;;;;6287110;22;20442;-91
2023/03/26 04:57:02;;;;;;;7.78;1.10;;;6.80;99.90;;;;;;6286566;22;20332;-92
2023/03/26 04:59:34;;;;;;;7.03;0.80;;;6.80;99.90;;;;;;6260151;22;20028;-91
2023/03/26 05:02:01;;;;;;;3.97;0.75;;;6.80;99.90;;;;;;6285410;22;20047;-92
2023/03/26 05:04:30;;;;;;;3.80;0.52;;;6.80;99.90;;;;;;6286355;22;20017;-92
2023/03/26 05:06:57;;;;;;;3.33;0.68;;;6.80;99.90;;;;;;6156804;23;20013;-92
2023/03/26 05:09:24;;;;;;;4.03;0.90;;;6.80;99.90;;;;;;6108376;22;20021;-91
2023/03/26 05:11:50;;;;;;;;;;;6.70;99.90;;;;;;6108462;23;20013;-92
2023/03/26 05:14:17;;;;;;;2.80;0.40;;;6.70;99.90;;;;;;6260632;22;19916;-92
2023/03/26 05:16:45;;;;;;;;;;;6.70;99.90;;;;;;6235736;22;20025;-92
2023/03/26 05:19:11;;;;;;;5.43;0.88;;;6.70;99.90;;;;;;6260032;22;19916;-94
2023/03/26 05:21:37;;;;;;;5.20;0.88;;;6.70;99.90;;;;;;6107834;22;20025;-90
2023/03/26 05:24:04;;;;;;;3.23;0.53;;;6.70;99.90;;;;;;6234654;22;20070;-93
2023/03/26 05:26:49;;;;;;;4.47;0.50;;;6.70;99.90;;;;;;6261233;22;20055;-91
2023/03/26 05:29:16;;;;;;;2.30;0.32;;;6.70;99.90;;;;;;6285595;22;20013;-93
2023/03/26 05:31:43;;;;;;;3.00;0.63;;;6.70;99.90;;;;;;6260623;22;20048;-91
2023/03/26 05:34:09;;;;;;;5.13;0.80;;;6.60;99.90;;;;;;6285681;22;20104;-91
2023/03/26 05:40:34;;;;;;;;;;;6.60;99.90;;;;;;6183001;23;20011;-89
2023/03/26 05:43:00;;;;;;;6.95;0.80;;;6.60;99.90;;;;;;6260264;22;19923;-91
2023/03/26 05:45:26;;;;;;;4.07;0.50;;;6.60;99.90;;;;;;6235486;22;20100;-92
2023/03/26 05:47:53;;;;;;;6.07;0.93;;;6.60;99.90;;;;;;6235078;22;20009;-91
2023/03/26 05:50:19;;;;;;;7.32;1.00;;;6.60;99.90;;;;;;6235049;22;20049;-89
2023/03/26 05:52:45;;;;;;;6.32;0.50;;;6.60;99.90;;;;;;6260485;22;20024;-91
2023/03/26 05:55:12;;;;;;;4.47;0.77;;;6.60;99.90;;;;;;6234452;22;20009;-91
2023/03/26 05:57:37;;;;;;;13.98;1.65;;;6.70;99.90;;;;;;6106934;23;20013;-92
2023/03/26 06:00:07;;;;;;;8.70;0.77;;;6.70;99.90;;;;;;6259500;22;20438;-90
2023/03/26 06:02:34;;;;;;;6.35;0.63;;;6.70;99.90;;;;;;6107887;22;20017;-93
2023/03/26 06:05:01;;;;;;;6.95;1.10;;;6.60;99.90;;;;;;6259906;22;20071;-92
2023/03/26 06:07:27;;;;;;;2.22;1.05;;;6.60;99.90;;;;;;6260284;22;20018;-90
2023/03/26 06:09:53;;;;;;;2.50;0.40;;;6.70;99.90;;;;;;6258712;22;20101;-91
2023/03/26 06:12:19;;;;;;;6.03;1.13;;;6.60;99.90;;;;;;6259704;22;20017;-92
2023/03/26 06:14:46;;;;;;;3.67;0.77;;;6.70;99.90;;;;;;6106731;22;20021;-90
2023/03/26 06:17:12;;;;;;;5.70;0.75;;;6.70;99.90;;;;;;6107689;22;20096;-91
2023/03/26 06:19:38;;;;;;;2.28;0.60;;;6.70;99.90;;;;;;6234865;22;20025;-91
2023/03/26 06:22:04;;;;;;;6.57;0.87;;;6.70;99.90;;;;;;6260062;22;20017;-94
2023/03/26 06:24:30;;;;;;;3.13;0.40;;;6.70;99.90;;;;;;6259049;22;20396;-93
2023/03/26 06:26:56;;;;;;;4.75;0.70;;;6.70;99.90;;;;;;6106922;23;20447;-93
2023/03/26 06:29:22;;;;;;;8.20;1.00;;;6.70;99.90;;;;;;6259473;22;20021;-93
2023/03/26 06:31:48;;;;;;;5.80;1.30;;;6.70;99.90;;;;;;6107034;23;20051;-94
2023/03/26 06:34:13;;;;;;;4.13;0.57;;;6.80;99.90;;;;;;6260370;22;20066;-90
2023/03/26 06:36:57;;;;;;;3.33;0.50;;;6.80;99.90;;;;;;6262405;22;20017;-93
2023/03/26 06:39:23;;;;;;;4.55;0.80;;;6.80;99.90;;;;;;6156766;23;20028;-93
2023/03/26 06:41:49;;;;;;;6.07;0.60;;;6.80;99.90;;;;;;6261588;22;20013;-93
2023/03/26 06:44:15;;;;;;;3.83;0.80;;;6.80;99.90;;;;;;6260606;22;20048;-92
2023/03/26 06:46:40;;;;;;;4.30;0.70;;;6.80;99.90;;;;;;6261648;22;20017;-94
2023/03/26 06:49:06;;;;;;;8.33;0.90;;;6.80;99.90;;;;;;6108069;23;20021;-92
2023/03/26 06:51:32;;;;;;;2.63;0.50;;;6.90;99.90;;;;;;6108357;23;20044;-92
2023/03/26 06:54:18;;;;;;;5.47;0.60;;;6.90;99.90;;;;;;6108393;23;20449;-94
2023/03/26 06:56:43;;;;;;;9.18;1.88;;;6.90;99.90;;;;;;6107981;23;20017;-93
2023/03/26 06:59:09;;;;;;;3.37;0.40;;;6.90;99.90;;;;;;6260466;22;20055;-92
2023/03/26 07:01:35;;;;;;;5.27;0.73;;;6.90;99.90;;;;;;6261824;22;20017;-93
2023/03/26 07:04:01;;;;;;;2.80;0.50;;;6.80;99.90;;;;;;6262062;22;20076;-91
2023/03/26 07:07:19;;;;;;;4.47;0.80;;;6.90;99.90;;;;;;6156436;23;20017;-91
2023/03/26 07:10:00;;;;;;;6.13;0.82;;;6.80;99.90;;;;;;6287446;22;20017;-90
2023/03/26 07:12:26;;;;;;;4.97;0.70;;;6.90;99.90;;;;;;6236171;22;20021;-91
2023/03/26 07:14:51;;;;;;;7.43;1.37;;;7.00;99.90;;;;;;6235797;22;20014;-90
2023/03/26 07:17:17;;;;;;;4.50;0.77;;;7.00;99.90;;;;;;6107546;23;20096;-90
2023/03/26 07:19:43;;;;;;;3.80;0.53;;;7.00;99.90;;;;;;6083643;23;20013;-90
2023/03/26 07:22:23;;;;;;;3.67;0.57;;;7.10;99.90;;;;;;6108080;23;20458;-92
2023/03/26 07:25:05;;;;;;;4.55;0.63;;;7.10;99.90;;;;;;6287864;22;20028;-90
2023/03/26 07:27:49;;;;;;;5.85;0.52;;;7.10;99.90;;;;;;6286019;22;20017;-89
2023/03/26 07:30:19;;;;;;;5.78;0.85;;;7.20;99.90;;;;;;6260492;22;20074;-86
2023/03/26 07:33:13;;;;;;;4.47;0.50;;;7.20;99.90;;;;;;6259966;22;20013;-87
2023/03/26 07:39:42;;;;;;;;;;;7.40;99.90;;;;;;6183359;23;20039;-86
2023/03/26 07:42:38;;;;;;;6.80;1.10;;;7.50;99.90;;;;;;6286857;22;19920;-87
2023/03/26 07:45:23;;;;;;;3.47;0.73;;;7.60;99.90;;;;;;6285983;22;20260;-88
2023/03/26 07:47:48;;;;;;;8.18;0.65;;;7.70;99.90;;;;;;6284887;22;20457;-87
2023/03/26 07:50:17;;;;;;;4.63;0.80;;;7.80;99.90;;;;;;6259946;22;20021;-87
2023/03/26 07:52:42;;;;;;;2.78;0.50;;;7.90;99.90;;;;;;6262191;22;20014;-86
2023/03/26 07:55:15;;;;;;;3.27;0.60;;;8.00;99.90;;;;;;6287454;22;20079;-85
2023/03/26 07:57:46;;;;;;;5.63;0.90;;;8.00;99.90;;;;;;6258317;22;20028;-89
2023/03/26 08:00:28;;;;;;;5.13;0.60;;;8.00;99.90;;;;;;6286623;22;20025;-87
2023/03/26 08:07:30;;;;;;;5.38;0.63;;;7.70;99.90;;;;;;6182245;22;20119;-86
2023/03/26 08:10:14;;;;;;;3.15;0.50;;;7.70;99.90;;;;;;6260050;22;20105;-86
2023/03/26 08:13:02;;;;;;;5.47;0.70;;;7.70;99.90;;;;;;6259277;22;20017;-85
2023/03/26 08:15:36;;;;;;;3.35;0.60;;;7.70;99.90;;;;;;6286178;22;20347;-87
2023/03/26 08:18:34;;;;;;;6.65;0.80;;;7.70;99.90;;;;;;6285308;22;20087;-85
2023/03/26 08:21:16;;;;;;;3.17;0.73;;;7.70;99.90;;;;;;6259840;22;20017;-87
2023/03/26 08:24:21;;;;;;;4.18;1.02;;;7.80;99.90;;;;;;6252600;22;20065;-85
2023/03/26 08:27:14;;;;;;;5.95;0.70;;;7.70;99.90;;;;;;6185194;22;20028;-86
2023/03/26 08:30:04;;;;;;;3.65;0.50;;;7.70;99.90;;;;;;6259770;22;20446;-86
2023/03/26 08:32:30;;;;;;;4.40;0.52;;;7.80;99.90;;;;;;6285736;22;20345;-87
2023/03/26 08:35:15;;;;;;;3.13;0.47;;;7.90;99.90;;;;;;6083079;23;20458;-87
2023/03/26 08:37:56;;;;;;;2.75;0.60;;;8.00;99.90;;;;;;6198666;22;20024;-85
2023/03/26 08:41:06;;;;;;;2.45;0.60;;;8.10;99.90;;;;;;6285483;22;20017;-86
2023/03/26 08:44:02;;;;;;;5.32;0.73;;;8.10;99.90;;;;;;6284888;22;20017;-85
2023/03/26 08:47:05;;;;;;;10.73;0.80;;;8.10;99.90;;;;;;6259671;22;20026;-87
2023/03/26 08:50:02;;;;;;;4.07;0.68;;;8.00;99.90;;;;;;6259765;22;20021;-86
2023/03/26 08:55:41;;;;;;;5.75;0.65;;;7.80;99.90;;;;;;6351045;22;20075;-86
2023/03/26 08:58:32;;;;;;;6.53;0.80;;;7.80;99.90;;;;;;6186881;22;20467;-89
2023/03/26 09:01:10;;;;;;;2.38;0.50;;;7.70;99.90;;;;;;6211289;23;20445;-89
2023/03/26 09:04:13;;;;;;;3.75;0.70;;;7.70;99.90;;;;;;6211031;23;20516;-87
2023/03/26 09:06:50;;;;;;;5.20;0.90;;;7.60;99.90;;;;;;6187321;23;20016;-90
2023/03/26 09:13:20;;;;;;;4.30;0.60;;;7.70;99.90;;;;;;6213649;23;20027;-87
2023/03/26 09:16:04;;;;;;;3.60;0.52;;;7.60;99.90;;;;;;6188649;23;20336;-89
2023/03/26 09:19:00;;;;;;;8.48;0.90;;;7.60;99.90;;;;;;6188151;23;20020;-87
2023/03/26 09:21:50;;;;;;;7.00;1.08;;;7.70;99.90;;;;;;6187877;23;20491;-89
2023/03/26 09:24:43;;;;;;;3.95;0.63;;;7.80;99.90;;;;;;6187602;23;20018;-89
2023/03/26 09:30:16;;;;;;;4.85;0.60;;;8.00;99.90;;;;;;6280790;22;1263245;-85
2023/03/26 09:32:44;;;;;;;7.82;1.02;;;8.10;99.90;;;;;;6372911;22;20075;-85
2023/03/26 09:35:26;;;;;;;4.57;0.88;;;8.10;99.90;;;;;;6370336;22;20096;-86
2023/03/26 09:38:10;;;;;;;2.85;0.80;;;8.10;99.90;;;;;;6341641;22;20014;-84
2023/03/26 09:40:42;;;;;;;8.98;3.53;;;8.00;99.90;;;;;;6396790;22;20093;-85
2023/03/26 09:43:26;;;;;;;4.13;1.00;;;8.00;99.90;;;;;;6400840;22;20074;-86
2023/03/26 09:46:04;;;;;;;6.53;1.33;;;8.00;99.90;;;;;;6347248;22;20364;-85
2023/03/26 09:48:46;;;;;;;3.50;0.60;;;7.90;99.90;;;;;;6373153;22;20017;-86
2023/03/26 09:51:41;;;;;;;4.97;0.63;;;7.90;99.90;;;;;;6373830;22;20022;-86
2023/03/26 09:54:12;;;;;;;7.90;1.40;;;8.00;99.90;;;;;;6283938;22;20030;-88
2023/03/26 09:56:48;;;;;;;11.30;3.20;;;7.90;99.90;;;;;;6373123;22;20338;-85
2023/03/26 09:59:29;;;;;;;6.13;0.95;;;7.90;99.90;;;;;;6373490;22;20017;-85
2023/03/26 10:02:07;;;;;;;3.30;0.75;;;7.90;99.90;;;;;;6401572;22;20028;-86
2023/03/26 10:05:18;;;;;;;4.63;0.60;;;7.90;99.90;;;;;;6373371;22;20258;-89
2023/03/26 10:07:47;;;;;;;2.95;0.60;;;8.00;99.90;;;;;;6400108;22;20017;-86
2023/03/26 10:10:27;;;;;;;3.78;0.63;;;7.90;99.90;;;;;;6373223;22;20053;-88
2023/03/26 10:13:17;;;;;;;2.35;0.60;;;8.00;99.90;;;;;;6347266;22;20014;-87
2023/03/26 10:16:09;;;;;;;3.33;0.70;;;8.00;99.90;;;;;;6347089;22;20022;-85
2023/03/26 10:18:47;;;;;;;2.85;0.57;;;8.00;99.90;;;;;;6347061;22;20017;-85
2023/03/26 10:21:39;;;;;;;6.70;0.80;;;8.00;99.90;;;;;;6373589;22;20021;-86
2023/03/26 10:24:37;;;;;;;5.07;0.80;;;8.00;99.90;;;;;;6347245;22;20346;-85
2023/03/26 10:27:30;;;;;;;3.47;0.90;;;7.90;99.90;;;;;;6373640;22;20029;-88
2023/03/26 10:29:55;;;;;;;5.72;0.90;;;7.80;99.90;;;;;;6347095;22;20018;-85
2023/03/26 10:32:31;;;;;;;5.03;0.70;;;7.80;99.90;;;;;;6401600;22;20021;-85
2023/03/26 10:35:24;;;;;;;5.05;1.33;;;7.80;99.90;;;;;;6401581;22;20088;-86
2023/03/26 10:37:59;;;;;;;4.05;0.90;;;7.80;99.90;;;;;;6401679;22;20014;-86
2023/03/26 10:41:03;;;;;;;4.35;0.60;;;7.80;99.90;;;;;;6401503;22;20014;-84
2023/03/26 10:43:54;;;;;;;5.80;0.65;;;7.80;99.90;;;;;;6399421;22;20018;-84
2023/03/26 10:46:29;;;;;;;2.55;0.50;;;7.80;99.90;;;;;;6401041;22;20053;-85
2023/03/26 10:48:55;;;;;;;8.05;1.17;;;7.80;99.90;;;;;;6372908;22;20446;-85
2023/03/26 10:51:54;;;;;;;4.57;0.60;;;7.80;99.90;;;;;;6372323;22;20045;-85
2023/03/26 10:54:37;;;;;;;4.40;0.55;;;7.80;99.90;;;;;;6327224;22;20498;-86
2023/03/26 10:57:17;;;;;;;4.10;0.80;;;7.90;99.90;;;;;;6372364;22;20160;-85
2023/03/26 10:59:43;;;;;;;2.45;0.30;;;7.90;99.90;;;;;;6400221;22;20053;-86
2023/03/26 11:02:36;;;;;;;2.40;0.57;;;7.90;99.90;;;;;;6400315;22;20361;-85
2023/03/26 11:05:19;;;;;;;2.03;0.40;;;7.90;99.90;;;;;;6399050;22;20044;-88
2023/03/26 11:08:22;;;;;;;3.97;0.60;;;7.90;99.90;;;;;;6372199;22;20029;-86
2023/03/26 11:11:10;;;;;;;5.40;0.55;;;7.90;99.90;;;;;;6372349;22;20094;-85
2023/03/26 11:13:45;;;;;;;4.18;0.50;;;7.90;99.90;;;;;;6372397;22;20550;-86
2023/03/26 11:16:32;;;;;;;6.20;0.70;;;7.90;99.90;;;;;;6345911;22;20097;-85
2023/03/26 11:19:04;;;;;;;4.70;0.45;;;7.80;99.90;;;;;;6372548;22;20101;-85
2023/03/26 11:21:44;;;;;;;1.08;0.30;;;7.80;99.90;;;;;;6373651;22;20018;-89
2023/03/26 11:24:44;;;;;;;6.22;0.40;;;7.90;99.90;;;;;;6371608;22;20018;-86
2023/03/26 11:27:25;;;;;;;3.30;0.63;;;8.00;99.90;;;;;;6345774;22;20014;-87
2023/03/26 11:30:01;;;;;;;4.38;0.57;;;8.10;99.90;;;;;;6374172;22;20347;-86
2023/03/26 11:32:40;;;;;;;2.38;0.70;;;8.10;99.90;;;;;;6402229;22;20024;-86
2023/03/26 11:35:33;;;;;;;8.25;0.65;;;8.10;99.90;;;;;;6401704;22;20475;-84
2023/03/26 11:38:56;;;;;;;4.38;0.73;;;8.10;99.90;;;;;;6373821;22;20096;-87
2023/03/26 11:42:00;;;;;;;4.30;0.60;;;8.10;99.90;;;;;;6278428;22;20141;-85
2023/03/26 11:44:41;;;;;;;10.27;1.25;;;8.10;99.90;;;;;;6304475;22;20019;-87
2023/03/26 11:47:11;;;;;;;2.88;0.60;;;8.20;99.90;;;;;;6252818;22;20044;-85
2023/03/26 11:49:37;;;;;;;5.72;0.52;;;8.30;99.90;;;;;;6278998;22;20215;-84
2023/03/26 11:52:04;;;;;;;4.32;0.65;;;8.30;99.90;;;;;;6396692;22;20530;-85
2023/03/26 11:54:38;;;;;;;4.70;0.70;;;8.30;99.90;;;;;;6373262;22;20431;-85
2023/03/26 11:57:12;;;;;;;1.98;0.50;;;8.30;99.90;;;;;;6347403;22;20013;-86
2023/03/26 11:59:49;;;;;;;3.85;0.80;;;8.20;99.90;;;;;;6374090;22;20378;-86
2023/03/26 12:02:23;;;;;;;1.77;0.35;;;8.20;99.90;;;;;;6373947;22;20486;-84
2023/03/26 12:05:10;;;;;;;4.93;0.55;;;8.10;99.90;;;;;;6373675;22;20560;-88
2023/03/26 12:07:57;;;;;;;4.07;0.43;;;8.00;99.90;;;;;;6402086;22;20045;-84
2023/03/26 12:10:36;;;;;;;1.83;0.30;;;8.10;99.90;;;;;;6402428;22;20093;-84
2023/03/26 12:13:33;;;;;;;4.85;0.52;;;8.00;99.90;;;;;;6402762;22;20021;-82
2023/03/26 12:16:12;;;;;;;3.10;0.40;;;8.00;99.90;;;;;;6347085;22;20009;-91
2023/03/26 12:18:42;;;;;;;2.65;0.80;;;8.00;99.90;;;;;;6406054;22;20025;-86
2023/03/26 12:21:08;;;;;;;5.50;0.98;;;7.90;99.90;;;;;;6378615;22;20025;-85
2023/03/26 12:23:50;;;;;;;3.60;0.40;;;7.90;99.90;;;;;;6406619;22;20021;-86
2023/03/26 12:26:35;;;;;;;12.10;4.97;;;7.90;99.90;;;;;;6374663;22;20024;-86
2023/03/26 12:29:09;;;;;;;5.50;0.70;;;7.90;99.90;;;;;;6373456;22;20030;-83
2023/03/26 12:31:50;;;;;;;3.05;0.40;;;7.80;99.90;;;;;;6373845;22;20016;-87
2023/03/26 12:34:19;;;;;;;4.03;0.57;;;7.90;99.90;;;;;;6346552;22;20431;-86
2023/03/26 12:36:51;;;;;;;4.75;0.50;;;8.00;99.90;;;;;;6347219;22;20058;-90
2023/03/26 12:39:35;;;;;;;2.83;0.43;;;8.30;99.90;;;;;;6402538;22;20192;-88
2023/03/26 12:42:32;;;;;;;2.22;0.40;;;8.60;99.90;;;;;;6404608;22;20021;-94
2023/03/26 12:44:58;;;;;;;1.63;0.30;;;8.70;99.90;;;;;;6374171;22;20021;-91
2023/03/26 12:47:31;;;;;;;2.90;0.90;;;8.60;99.90;;;;;;6375282;22;20334;-88
2023/03/26 12:49:58;;;;;;;3.20;0.47;;;8.60;99.90;;;;;;6374732;22;20010;-90
2023/03/26 12:52:48;;;;;;;;;;;8.50;99.90;;;;;;6375086;22;20402;-89
2023/03/26 12:55:36;;;;;;;4.90;0.47;;;8.40;99.90;;;;;;6375521;22;19943;-88
2023/03/26 12:58:55;;;;;;;2.95;0.30;;;8.30;99.90;;;;;;6376364;22;20017;-93
2023/03/26 13:05:35;;;;;;;3.55;0.80;;;8.20;99.90;;;;;;6367049;22;20020;-87
2023/03/26 13:08:40;;;;;;;2.28;0.40;;;8.10;99.90;;;;;;6370777;22;20018;-86
2023/03/26 13:11:11;;;;;;;3.83;0.50;;;8.00;99.90;;;;;;6348745;22;20014;-87
2023/03/26 13:14:20;;;;;;;4.97;0.93;;;7.90;99.90;;;;;;6349091;22;20057;-88
2023/03/26 13:17:07;;;;;;;4.03;0.80;;;7.80;99.90;;;;;;6348232;22;20110;-86
2023/03/26 13:20:05;;;;;;;3.47;0.50;;;7.70;99.90;;;;;;6375919;22;20339;-88
2023/03/26 13:23:14;;;;;;;3.00;0.47;;;7.80;99.90;;;;;;6343188;22;20344;-87
2023/03/26 13:25:58;;;;;;;3.45;0.52;;;7.70;99.90;;;;;;6346175;22;20011;-90
2023/03/26 13:28:42;;;;;;;4.40;0.63;;;7.70;99.90;;;;;;6361713;22;20443;-91
2023/03/26 13:31:16;;;;;;;2.75;0.60;;;7.70;99.90;;;;;;6358014;22;20051;-90
2023/03/26 13:33:53;;;;;;;2.30;0.40;;;7.70;99.90;;;;;;6376375;22;20010;-89
2023/03/26 13:36:41;;;;;;;3.13;0.52;;;7.70;99.90;;;;;;6349022;22;20026;-84
2023/03/26 13:39:19;;;;;;;4.57;0.47;;;7.70;99.90;;;;;;6348266;22;20059;-93
2023/03/26 13:42:06;;;;;;;2.70;0.30;;;7.60;99.90;;;;;;6402955;22;20028;-86
2023/03/26 13:45:20;;;;;;;1.77;0.40;;;7.70;99.90;;;;;;6403543;22;20418;-84
2023/03/26 13:47:50;;;;;;;4.25;0.40;;;7.80;99.90;;;;;;6264166;22;20253;-86
2023/03/26 13:50:23;;;;;;;1.88;0.35;;;7.90;99.90;;;;;;6374544;22;20018;-89
2023/03/26 13:52:55;;;;;;;4.25;0.45;;;8.00;99.90;;;;;;6375682;22;20073;-91
2023/03/26 13:55:40;;;;;;;2.75;0.50;;;8.00;99.90;;;;;;6375650;22;20014;-88
2023/03/26 13:58:21;;;;;;;2.33;0.47;;;8.00;99.90;;;;;;6373964;22;20014;-88
2023/03/26 14:00:53;;;;;;;5.55;0.70;;;8.10;99.90;;;;;;6373565;22;20018;-86
2023/03/26 14:03:47;;;;;;;4.30;0.65;;;8.20;99.90;;;;;;6373858;22;20010;-86
2023/03/26 14:06:22;;;;;;;4.45;0.35;;;8.10;99.90;;;;;;6314028;22;20075;-85
2023/03/26 14:08:56;;;;;;;2.58;0.52;;;8.00;99.90;;;;;;6374976;22;20041;-86
2023/03/26 14:11:42;;;;;;;3.15;0.40;;;8.00;99.90;;;;;;6405925;22;20018;-87
2023/03/26 14:14:18;;;;;;;2.17;0.50;;;8.00;99.90;;;;;;6377859;22;20071;-95
2023/03/26 14:17:30;;;;;;;5.13;0.80;;;8.00;99.90;;;;;;6407000;22;20454;-91
2023/03/26 14:20:50;;;;;;;4.85;0.40;;;8.10;99.90;;;;;;6377441;22;20020;-86
2023/03/26 14:23:25;;;;;;;2.75;0.32;;;8.10;99.90;;;;;;6375488;22;20312;-88
2023/03/26 14:26:28;;;;;;;2.70;0.40;;;8.00;99.90;;;;;;6373944;22;20021;-83
2023/03/26 14:29:06;;;;;;;4.43;0.55;;;8.00;99.90;;;;;;6401782;22;20466;-84
2023/03/26 14:32:03;;;;;;;3.40;0.40;;;8.00;99.90;;;;;;6402193;22;20022;-85
2023/03/26 14:34:57;;;;;;;3.42;0.30;;;8.00;99.90;;;;;;6374127;22;20013;-89
2023/03/26 14:37:42;;;;;;;5.93;0.82;;;7.90;99.90;;;;;;6373673;22;20017;-86
2023/03/26 14:40:30;;;;;;;6.78;0.57;;;7.80;99.90;;;;;;6347427;22;20025;-85
2023/03/26 14:43:22;;;;;;;2.60;0.30;;;7.70;99.90;;;;;;6347300;22;20021;-86
2023/03/26 14:46:13;;;;;;;3.72;0.50;;;7.60;99.90;;;;;;6373772;22;20022;-90
2023/03/26 14:49:12;;;;;;;3.80;0.52;;;7.50;99.90;;;;;;6347546;22;20014;-86